createdAt,value
2022-09-01T00:00:29.128Z,82.39
2022-09-01T00:03:03.590Z,82.67
2022-09-01T00:05:33.182Z,82.86
2022-09-01T00:08:01.151Z,83.03
2022-09-01T00:10:29.140Z,82.60
2022-09-01T00:12:57.192Z,82.46
2022-09-01T00:15:26.477Z,82.26
2022-09-01T00:17:54.581Z,82.20
2022-09-01T00:20:22.602Z,81.83
2022-09-01T00:22:50.970Z,82.04
2022-09-01T00:25:20.538Z,81.92
2022-09-01T00:27:49.895Z,81.79
2022-09-01T00:30:19.367Z,81.67
2022-09-01T00:32:48.271Z,81.80
2022-09-01T00:35:19.059Z,81.85
2022-09-01T00:37:47.902Z,81.77
2022-09-01T00:40:17.314Z,82.12
2022-09-01T00:42:48.937Z,82.25
2022-09-01T00:45:17.344Z,82.45
2022-09-01T00:47:45.410Z,82.35
2022-09-01T00:50:16.851Z,82.57
2022-09-01T00:52:55.264Z,82.55
2022-09-01T00:55:27.328Z,82.95
2022-09-01T00:57:56.377Z,83.14
2022-09-01T01:00:27.591Z,83.13
2022-09-01T01:02:56.666Z,83.43
2022-09-01T01:05:34.237Z,83.40
2022-09-01T01:08:04.380Z,83.35
2022-09-01T01:10:35.995Z,83.46
2022-09-01T01:13:14.354Z,83.23
2022-09-01T01:15:44.208Z,83.63
2022-09-01T01:18:18.747Z,83.98
2022-09-01T01:21:37.648Z,84.03
2022-09-01T01:24:24.981Z,83.79
2022-09-01T01:26:54.447Z,83.28
2022-09-01T01:29:22.468Z,83.22
2022-09-01T01:31:54.008Z,83.52
2022-09-01T01:34:23.571Z,83.68
2022-09-01T01:36:53.032Z,83.85
2022-09-01T01:39:25.735Z,84.13
2022-09-01T01:41:57.845Z,83.93
2022-09-01T01:44:31.175Z,83.82
2022-09-01T01:47:08.753Z,83.92
2022-09-01T01:49:37.893Z,83.73
2022-09-01T01:52:06.203Z,83.57
2022-09-01T01:54:37.575Z,83.91
2022-09-01T01:57:05.861Z,84.09
2022-09-01T01:59:34.554Z,84.19
2022-09-01T02:02:04.178Z,84.09
2022-09-01T02:04:34.385Z,84.30
2022-09-01T02:07:11.892Z,84.70
2022-09-01T02:09:44.305Z,84.27
2022-09-01T02:12:12.425Z,84.09
2022-09-01T02:14:44.110Z,84.20
2022-09-01T02:17:12.143Z,84.00
2022-09-01T02:19:43.063Z,84.31
2022-09-01T02:22:11.594Z,84.37
2022-09-01T02:24:51.603Z,84.25
2022-09-01T02:27:25.156Z,84.19
2022-09-01T02:29:55.618Z,84.23
2022-09-01T02:32:23.933Z,84.08
2022-09-01T02:34:53.980Z,83.67
2022-09-01T02:37:25.591Z,83.75
2022-09-01T02:39:57.821Z,84.14
2022-09-01T02:42:28.014Z,84.27
2022-09-01T02:44:58.824Z,84.24
2022-09-01T02:47:29.689Z,84.35
2022-09-01T02:49:59.664Z,84.36
2022-09-01T02:52:29.968Z,84.61
2022-09-01T02:54:59.646Z,84.82
2022-09-01T02:57:29.620Z,85.04
2022-09-01T02:59:59.087Z,85.40
2022-09-01T03:02:29.034Z,85.84
2022-09-01T03:04:57.634Z,85.83
2022-09-01T03:07:27.688Z,85.58
2022-09-01T03:09:55.751Z,85.57
2022-09-01T03:12:24.212Z,85.44
2022-09-01T03:14:52.248Z,85.13
2022-09-01T03:17:21.909Z,84.86
2022-09-01T03:19:52.058Z,84.51
2022-09-01T03:22:20.770Z,84.16
2022-09-01T03:24:48.909Z,84.01
2022-09-01T03:27:17.503Z,84.30
2022-09-01T03:29:45.648Z,83.90
2022-09-01T03:32:13.706Z,84.03
2022-09-01T03:34:42.013Z,84.25
2022-09-01T03:37:12.400Z,84.21
2022-09-01T03:39:40.446Z,84.32
2022-09-01T03:42:11.573Z,84.37
2022-09-01T03:44:41.125Z,84.30
2022-09-01T03:47:15.485Z,84.19
2022-09-01T03:49:43.719Z,84.43
2022-09-01T03:52:12.419Z,84.95
2022-09-01T03:54:40.665Z,85.09
2022-09-01T03:57:10.274Z,85.57
2022-09-01T03:59:45.395Z,85.69
2022-09-01T04:02:14.806Z,85.31
2022-09-01T04:04:43.127Z,85.41
2022-09-01T04:07:11.070Z,85.71
2022-09-01T04:09:47.193Z,85.73
2022-09-01T04:12:16.264Z,85.54
2022-09-01T04:14:48.826Z,85.20
2022-09-01T04:17:35.610Z,85.08
2022-09-01T04:20:09.099Z,84.93
2022-09-01T04:22:38.466Z,84.99
2022-09-01T04:25:07.217Z,84.74
2022-09-01T04:27:39.387Z,84.87
2022-09-01T04:30:10.881Z,84.71
2022-09-01T04:32:46.913Z,84.39
2022-09-01T04:35:17.201Z,83.92
2022-09-01T04:37:47.820Z,84.00
2022-09-01T04:40:17.800Z,83.82
2022-09-01T04:42:46.442Z,83.18
2022-09-01T04:45:20.415Z,83.36
2022-09-01T04:47:48.943Z,83.04
2022-09-01T04:50:19.248Z,82.94
2022-09-01T04:53:07.440Z,83.32
2022-09-01T04:55:55.956Z,83.44
2022-09-01T04:58:27.498Z,83.85
2022-09-01T05:00:56.854Z,83.48
2022-09-01T05:03:27.275Z,83.62
2022-09-01T05:06:18.888Z,83.55
2022-09-01T05:08:57.969Z,83.76
2022-09-01T05:11:45.594Z,83.86
2022-09-01T05:14:29.712Z,83.84
2022-09-01T05:16:59.318Z,84.09
2022-09-01T05:19:31.118Z,83.52
2022-09-01T05:22:01.323Z,83.54
2022-09-01T05:24:32.441Z,83.25
2022-09-01T05:27:08.078Z,83.56
2022-09-01T05:29:38.701Z,84.06
2022-09-01T05:32:11.334Z,84.26
2022-09-01T05:34:42.505Z,84.34
2022-09-01T05:37:13.237Z,84.24
2022-09-01T05:39:41.980Z,84.61
2022-09-01T05:42:11.100Z,84.13
2022-09-01T05:44:44.584Z,84.12
2022-09-01T05:47:20.599Z,84.04
2022-09-01T05:49:53.703Z,83.70
2022-09-01T05:52:26.382Z,83.46
2022-09-01T05:54:58.018Z,83.44
2022-09-01T05:57:35.249Z,83.63
2022-09-01T06:00:12.472Z,83.41
2022-09-01T06:02:45.269Z,83.28
2022-09-01T06:05:17.580Z,83.47
2022-09-01T06:07:45.760Z,83.29
2022-09-01T06:10:14.923Z,83.09
2022-09-01T06:12:45.379Z,83.02
2022-09-01T06:15:21.065Z,83.14
2022-09-01T06:17:52.902Z,83.17
2022-09-01T06:20:23.096Z,83.34
2022-09-01T06:22:52.961Z,83.97
2022-09-01T06:25:22.145Z,84.42
2022-09-01T06:27:52.720Z,83.99
2022-09-01T06:30:24.662Z,83.94
2022-09-01T06:33:02.347Z,83.58
2022-09-01T06:35:32.526Z,83.37
2022-09-01T06:38:02.092Z,83.29
2022-09-01T06:40:42.794Z,83.21
2022-09-01T06:43:17.472Z,83.10
2022-09-01T06:45:55.059Z,82.45
2022-09-01T06:48:27.518Z,82.50
2022-09-01T06:51:19.976Z,82.47
2022-09-01T06:53:56.850Z,81.44
2022-09-01T06:56:33.909Z,81.68
2022-09-01T06:59:10.313Z,81.46
2022-09-01T07:01:40.052Z,81.60
2022-09-01T07:04:12.738Z,81.39
2022-09-01T07:07:00.474Z,81.45
2022-09-01T07:13:11.864Z,81.77
2022-09-01T07:18:34.116Z,81.88
2022-09-01T07:21:35.634Z,82.12
2022-09-01T07:24:13.667Z,82.45
2022-09-01T07:27:07.777Z,82.92
2022-09-01T07:29:38.454Z,82.65
2022-09-01T07:34:55.332Z,81.90
2022-09-01T07:43:33.464Z,81.84
2022-09-01T07:46:44.412Z,81.03
2022-09-01T07:49:51.361Z,80.97
2022-09-01T07:52:05.993Z,81.09
2022-09-01T07:54:37.528Z,80.76
2022-09-01T07:57:06.292Z,80.60
2022-09-01T07:59:36.157Z,80.00
2022-09-01T08:02:19.608Z,79.90
2022-09-01T08:04:49.186Z,80.42
2022-09-01T08:07:18.072Z,80.12
2022-09-01T08:09:46.299Z,80.38
2022-09-01T08:12:17.180Z,79.88
2022-09-01T08:17:58.024Z,77.48
2022-09-01T08:20:37.748Z,76.09
2022-09-01T08:23:27.075Z,75.34
2022-09-01T08:25:56.502Z,74.08
2022-09-01T08:28:27.725Z,73.19
2022-09-01T08:30:58.430Z,73.31
2022-09-01T08:33:27.628Z,72.79
2022-09-01T08:35:57.393Z,71.70
2022-09-01T08:38:26.844Z,70.80
2022-09-01T08:40:57.775Z,69.67
2022-09-01T08:44:08.395Z,68.57
2022-09-01T08:46:41.508Z,68.03
2022-09-01T08:49:25.258Z,67.71
2022-09-01T08:52:31.904Z,67.02
2022-09-01T08:55:45.521Z,66.70
2022-09-01T08:58:18.745Z,66.57
2022-09-01T09:01:27.730Z,65.73
2022-09-01T09:04:37.103Z,65.80
2022-09-01T09:07:18.539Z,64.74
2022-09-01T09:09:57.757Z,64.51
2022-09-01T09:12:58.002Z,64.00
2022-09-01T09:15:37.535Z,63.73
2022-09-01T09:19:00.049Z,63.76
2022-09-01T09:21:43.557Z,62.15
2022-09-01T09:24:50.503Z,62.01
2022-09-01T09:27:31.425Z,60.92
2022-09-01T09:30:11.434Z,60.70
2022-09-01T09:33:24.983Z,60.14
2022-09-01T09:35:43.847Z,59.95
2022-09-01T09:38:24.181Z,59.96
2022-09-01T09:41:20.846Z,59.53
2022-09-01T09:44:03.272Z,58.20
2022-09-01T09:46:40.422Z,57.82
2022-09-01T09:49:36.387Z,57.15
2022-09-01T09:52:08.882Z,56.54
2022-09-01T09:54:40.634Z,56.54
2022-09-01T09:57:08.572Z,56.47
2022-09-01T09:59:57.860Z,54.84
2022-09-01T10:02:35.390Z,53.51
2022-09-01T10:05:36.556Z,52.97
2022-09-01T10:08:08.514Z,53.84
2022-09-01T10:10:48.728Z,53.80
2022-09-01T10:13:32.974Z,52.82
2022-09-01T10:16:10.554Z,53.84
2022-09-01T10:18:45.393Z,54.07
2022-09-01T10:21:24.255Z,54.13
2022-09-01T10:23:53.979Z,53.41
2022-09-01T10:26:48.273Z,53.31
2022-09-01T10:29:22.145Z,52.46
2022-09-01T10:32:03.417Z,51.60
2022-09-01T10:34:42.142Z,50.81
2022-09-01T10:37:15.991Z,50.14
2022-09-01T10:40:20.820Z,49.56
2022-09-01T10:42:55.305Z,49.25
2022-09-01T10:45:38.223Z,49.37
2022-09-01T10:48:34.059Z,49.58
2022-09-01T10:51:18.514Z,50.26
2022-09-01T10:54:02.235Z,50.22
2022-09-01T10:56:51.232Z,50.31
2022-09-01T10:59:43.494Z,50.77
2022-09-01T11:02:27.980Z,51.01
2022-09-01T11:05:00.403Z,50.49
2022-09-01T11:07:57.975Z,50.65
2022-09-01T11:10:38.749Z,50.56
2022-09-01T11:13:21.988Z,51.10
2022-09-01T11:15:50.324Z,51.60
2022-09-01T11:18:31.001Z,52.51
2022-09-01T11:21:28.120Z,51.81
2022-09-01T11:24:34.801Z,51.72
2022-09-01T11:27:02.954Z,52.03
2022-09-01T11:29:53.026Z,51.64
2022-09-01T11:32:31.561Z,51.70
2022-09-01T11:35:02.696Z,51.55
2022-09-01T11:37:33.637Z,51.34
2022-09-01T11:40:08.098Z,51.80
2022-09-01T11:42:46.865Z,52.65
2022-09-01T11:45:31.506Z,52.34
2022-09-01T11:48:09.844Z,52.77
2022-09-01T11:50:41.364Z,52.61
2022-09-01T11:53:14.354Z,52.52
2022-09-01T11:55:51.699Z,52.51
2022-09-01T11:58:29.130Z,52.55
2022-09-01T12:01:11.379Z,52.68
2022-09-01T12:03:40.856Z,52.30
2022-09-01T12:06:13.349Z,52.04
2022-09-01T12:08:51.571Z,52.45
2022-09-01T12:11:22.911Z,52.95
2022-09-01T12:14:01.476Z,53.05
2022-09-01T12:16:35.256Z,53.10
2022-09-01T12:19:05.331Z,53.28
2022-09-01T12:21:42.993Z,53.73
2022-09-01T12:24:23.341Z,54.38
2022-09-01T12:26:59.093Z,55.07
2022-09-01T12:29:31.993Z,55.10
2022-09-01T12:32:01.841Z,55.42
2022-09-01T12:34:48.003Z,55.57
2022-09-01T12:37:15.955Z,55.56
2022-09-01T12:39:58.152Z,56.32
2022-09-01T12:42:40.661Z,56.28
2022-09-01T12:45:10.567Z,55.92
2022-09-01T12:47:40.567Z,55.68
2022-09-01T12:50:29.779Z,56.10
2022-09-01T12:53:00.456Z,56.53
2022-09-01T12:55:51.530Z,55.90
2022-09-01T12:58:26.020Z,55.73
2022-09-01T13:01:16.452Z,55.90
2022-09-01T13:04:08.082Z,56.16
2022-09-01T13:06:36.464Z,56.52
2022-09-01T13:09:04.656Z,56.82
2022-09-01T13:14:21.870Z,57.51
2022-09-01T13:16:50.753Z,57.52
2022-09-01T13:19:27.406Z,57.59
2022-09-01T13:21:57.079Z,57.94
2022-09-01T13:24:28.722Z,58.50
2022-09-01T13:29:48.787Z,58.38
2022-09-01T13:32:20.767Z,58.89
2022-09-01T13:34:52.398Z,59.54
2022-09-01T13:37:21.756Z,59.97
2022-09-01T13:39:51.029Z,60.93
2022-09-01T13:42:19.390Z,61.82
2022-09-01T13:44:48.585Z,62.47
2022-09-01T13:47:35.432Z,63.10
2022-09-01T13:50:11.389Z,64.54
2022-09-01T13:52:55.015Z,65.88
2022-09-01T13:55:26.872Z,66.69
2022-09-01T13:57:57.092Z,67.82
2022-09-01T14:00:30.151Z,68.15
2022-09-01T14:03:03.042Z,69.11
2022-09-01T14:05:33.505Z,69.51
2022-09-01T14:08:02.305Z,70.44
2022-09-01T14:10:34.117Z,70.64
2022-09-01T14:13:02.205Z,70.93
2022-09-01T14:15:30.263Z,71.54
2022-09-01T14:17:59.708Z,71.98
2022-09-01T14:20:36.156Z,72.33
2022-09-01T14:23:08.534Z,72.08
2022-09-01T14:25:41.728Z,72.44
2022-09-01T14:28:09.890Z,73.20
2022-09-01T14:30:41.425Z,73.99
2022-09-01T14:33:10.727Z,74.66
2022-09-01T14:35:41.400Z,74.42
2022-09-01T14:38:10.008Z,74.62
2022-09-01T14:40:39.178Z,74.91
2022-09-01T14:43:10.424Z,75.18
2022-09-01T14:45:38.687Z,75.32
2022-09-01T14:48:06.773Z,75.63
2022-09-01T14:50:40.228Z,75.94
2022-09-01T14:53:08.823Z,76.08
2022-09-01T14:55:36.871Z,76.47
2022-09-01T14:58:05.230Z,76.49
2022-09-01T15:00:36.015Z,76.77
2022-09-01T15:03:05.263Z,76.94
2022-09-01T15:05:38.987Z,76.42
2022-09-01T15:08:13.006Z,76.32
2022-09-01T15:10:44.794Z,76.58
2022-09-01T15:13:13.799Z,76.74
2022-09-01T15:15:42.494Z,76.51
2022-09-01T15:18:10.987Z,76.69
2022-09-01T15:20:47.071Z,76.53
2022-09-01T15:23:24.734Z,77.05
2022-09-01T15:25:55.480Z,77.23
2022-09-01T15:28:26.115Z,77.46
2022-09-01T15:30:54.632Z,77.62
2022-09-01T15:33:22.799Z,77.49
2022-09-01T15:35:50.853Z,77.31
2022-09-01T15:38:22.762Z,77.80
2022-09-01T15:40:58.128Z,77.45
2022-09-01T15:43:29.576Z,77.60
2022-09-01T15:45:59.229Z,77.58
2022-09-01T15:48:29.129Z,77.84
2022-09-01T15:51:22.930Z,78.10
2022-09-01T15:53:53.540Z,78.36
2022-09-01T15:56:22.239Z,79.08
2022-09-01T15:59:00.746Z,79.07
2022-09-01T16:01:33.768Z,79.30
2022-09-01T16:04:03.487Z,79.38
2022-09-01T16:06:33.946Z,79.40
2022-09-01T16:09:02.402Z,79.51
2022-09-01T16:11:30.607Z,79.39
2022-09-01T16:14:00.282Z,80.07
2022-09-01T16:16:40.140Z,80.28
2022-09-01T16:19:33.876Z,80.44
2022-09-01T16:22:27.735Z,80.33
2022-09-01T16:25:04.794Z,80.36
2022-09-01T16:27:36.551Z,80.81
2022-09-01T16:30:14.653Z,80.49
2022-09-01T16:32:46.315Z,80.43
2022-09-01T16:35:16.987Z,80.62
2022-09-01T16:38:03.677Z,80.92
2022-09-01T16:40:34.727Z,81.23
2022-09-01T16:43:07.717Z,81.35
2022-09-01T16:46:03.591Z,80.97
2022-09-01T16:48:37.946Z,81.01
2022-09-01T16:51:35.837Z,81.01
2022-09-01T16:54:30.096Z,81.07
2022-09-01T16:57:07.829Z,81.12
2022-09-01T17:00:02.550Z,81.48
2022-09-01T17:02:55.477Z,81.74
2022-09-01T17:05:31.210Z,81.61
2022-09-01T17:08:21.899Z,82.11
2022-09-01T17:10:58.967Z,81.58
2022-09-01T17:13:41.601Z,81.50
2022-09-01T17:16:16.542Z,81.58
2022-09-01T17:18:58.887Z,81.72
2022-09-01T17:21:32.363Z,81.59
2022-09-01T17:24:17.955Z,82.13
2022-09-01T17:26:50.840Z,81.85
2022-09-01T17:29:26.993Z,82.08
2022-09-01T17:31:55.997Z,82.32
2022-09-01T17:34:34.248Z,82.32
2022-09-01T17:37:06.624Z,82.10
2022-09-01T17:39:37.468Z,82.10
2022-09-01T17:42:25.447Z,82.17
2022-09-01T17:44:56.490Z,81.77
2022-09-01T17:47:44.910Z,82.17
2022-09-01T17:50:38.792Z,82.68
2022-09-01T17:53:15.660Z,82.98
2022-09-01T17:56:09.225Z,82.68
2022-09-01T17:59:30.686Z,82.78
2022-09-01T18:02:18.050Z,82.68
2022-09-01T18:04:56.164Z,82.88
2022-09-01T18:07:51.758Z,83.14
2022-09-01T18:10:34.445Z,82.65
2022-09-01T18:13:07.002Z,82.98
2022-09-01T18:15:52.073Z,83.39
2022-09-01T18:18:40.877Z,83.33
2022-09-01T18:21:21.837Z,83.98
2022-09-01T18:23:55.552Z,83.81
2022-09-01T18:26:48.618Z,83.75
2022-09-01T18:29:17.952Z,84.08
2022-09-01T18:32:37.045Z,84.53
2022-09-01T18:35:19.767Z,84.87
2022-09-01T18:38:12.582Z,85.12
2022-09-01T18:41:01.948Z,85.08
2022-09-01T18:43:37.112Z,85.04
2022-09-01T18:46:14.011Z,84.73
2022-09-01T18:48:54.124Z,85.00
2022-09-01T18:51:26.619Z,85.16
2022-09-01T18:54:14.667Z,84.97
2022-09-01T18:56:45.505Z,84.76
2022-09-01T18:59:44.326Z,84.91
2022-09-01T19:02:49.899Z,85.07
2022-09-01T19:05:38.720Z,84.86
2022-09-01T19:08:44.983Z,84.65
2022-09-01T19:11:46.004Z,84.64
2022-09-01T19:14:38.476Z,85.01
2022-09-01T19:17:44.388Z,84.52
2022-09-01T19:20:18.708Z,84.38
2022-09-01T19:23:17.768Z,84.06
2022-09-01T19:25:45.966Z,84.55
2022-09-01T19:28:45.055Z,84.78
2022-09-01T19:31:19.794Z,84.51
2022-09-01T19:33:56.247Z,84.42
2022-09-01T19:36:45.707Z,84.37
2022-09-01T19:39:17.437Z,84.54
2022-09-01T19:42:07.013Z,85.12
2022-09-01T19:44:48.121Z,85.07
2022-09-01T19:47:26.193Z,85.04
2022-09-01T19:50:13.638Z,84.97
2022-09-01T19:52:56.923Z,84.59
2022-09-01T19:55:43.221Z,84.71
2022-09-01T19:58:19.741Z,84.70
2022-09-01T20:00:56.292Z,84.27
2022-09-01T20:03:40.931Z,83.93
2022-09-01T20:09:31.356Z,84.34
2022-09-01T20:12:05.894Z,84.31
2022-09-01T20:14:40.009Z,84.64
2022-09-01T20:17:16.239Z,84.24
2022-09-01T20:20:03.470Z,84.36
2022-09-01T20:22:51.295Z,84.64
2022-09-01T20:25:26.017Z,84.64
2022-09-01T20:28:25.827Z,84.39
2022-09-01T20:31:03.370Z,84.63
2022-09-01T20:33:37.477Z,84.93
2022-09-01T20:36:13.291Z,84.78
2022-09-01T20:39:02.836Z,85.08
2022-09-01T20:41:53.188Z,85.02
2022-09-01T20:44:57.526Z,84.96
2022-09-01T20:47:29.928Z,85.41
2022-09-01T20:50:00.834Z,85.75
2022-09-01T20:52:38.297Z,85.40
2022-09-01T20:55:24.090Z,85.56
2022-09-01T20:57:55.107Z,85.80
2022-09-01T21:00:26.116Z,85.66
2022-09-01T21:03:01.371Z,85.69
2022-09-01T21:05:38.347Z,85.71
2022-09-01T21:08:40.382Z,85.83
2022-09-01T21:11:27.272Z,85.68
2022-09-01T21:14:41.163Z,85.81
2022-09-01T21:17:53.953Z,85.52
2022-09-01T21:20:56.748Z,85.76
2022-09-01T21:23:26.425Z,86.02
2022-09-01T21:25:54.633Z,86.09
2022-09-01T21:28:26.496Z,86.13
2022-09-01T21:30:57.887Z,85.75
2022-09-01T21:33:29.040Z,85.95
2022-09-01T21:35:59.038Z,86.10
2022-09-01T21:38:29.604Z,85.96
2022-09-01T21:41:00.160Z,86.03
2022-09-01T21:43:37.587Z,85.95
2022-09-01T21:46:08.018Z,85.74
2022-09-01T21:48:36.859Z,85.75
2022-09-01T21:51:05.094Z,85.75
2022-09-01T21:53:33.556Z,85.93
2022-09-01T21:56:01.709Z,86.00
2022-09-01T21:58:29.733Z,86.32
2022-09-01T22:00:58.663Z,85.88
2022-09-01T22:03:26.765Z,85.93
2022-09-01T22:05:54.765Z,85.93
2022-09-01T22:08:23.359Z,86.15
2022-09-01T22:10:54.706Z,85.75
2022-09-01T22:13:24.854Z,85.77
2022-09-01T22:15:54.356Z,85.74
2022-09-01T22:18:22.899Z,85.89
2022-09-01T22:20:50.995Z,85.83
2022-09-01T22:23:20.605Z,85.85
2022-09-01T22:25:49.040Z,85.81
2022-09-01T22:28:17.078Z,85.92
2022-09-01T22:30:47.632Z,85.73
2022-09-01T22:33:16.533Z,85.57
2022-09-01T22:35:47.253Z,85.58
2022-09-01T22:38:15.738Z,85.72
2022-09-01T22:40:50.935Z,85.83
2022-09-01T22:43:19.679Z,86.04
2022-09-01T22:45:50.318Z,86.16
2022-09-01T22:48:20.745Z,85.88
2022-09-01T22:50:50.786Z,85.71
2022-09-01T22:53:21.314Z,85.37
2022-09-01T22:55:51.463Z,85.54
2022-09-01T22:58:20.792Z,85.17
2022-09-01T23:00:55.969Z,85.39
2022-09-01T23:03:24.066Z,85.35
2022-09-01T23:06:07.142Z,85.76
2022-09-01T23:08:35.277Z,85.69
2022-09-01T23:11:03.846Z,85.73
2022-09-01T23:13:34.210Z,85.51
2022-09-01T23:16:04.947Z,85.41
2022-09-01T23:18:35.573Z,85.86
2022-09-01T23:21:05.802Z,85.97
2022-09-01T23:23:35.427Z,85.76
2022-09-01T23:26:06.298Z,85.81
2022-09-01T23:28:35.391Z,85.83
2022-09-01T23:31:07.546Z,85.93
2022-09-01T23:33:35.818Z,86.17
2022-09-01T23:36:08.246Z,85.89
2022-09-01T23:38:37.510Z,85.85
2022-09-01T23:41:09.767Z,86.03
2022-09-01T23:43:39.020Z,85.92
2022-09-01T23:46:07.869Z,85.57
2022-09-01T23:48:36.363Z,85.97
2022-09-01T23:51:10.475Z,85.77
2022-09-01T23:53:39.328Z,85.58
2022-09-01T23:56:20.357Z,85.62
2022-09-01T23:58:49.099Z,86.05
